createdAt,value
2023-05-16T00:01:08.360Z,80.49
2023-05-16T00:03:38.083Z,80.46
2023-05-16T00:06:07.740Z,80.63
2023-05-16T00:08:36.298Z,81.22
2023-05-16T00:11:04.927Z,81.09
2023-05-16T00:13:33.241Z,80.81
2023-05-16T00:16:02.691Z,80.78
2023-05-16T00:18:30.836Z,80.86
2023-05-16T00:20:58.826Z,80.83
2023-05-16T00:23:28.029Z,80.62
2023-05-16T00:25:56.199Z,81.08
2023-05-16T00:28:24.141Z,80.72
2023-05-16T00:30:51.995Z,80.79
2023-05-16T00:33:20.267Z,80.67
2023-05-16T00:35:48.364Z,80.48
2023-05-16T00:38:16.157Z,80.82
2023-05-16T00:40:45.416Z,80.47
2023-05-16T00:43:13.574Z,80.48
2023-05-16T00:45:41.371Z,80.47
2023-05-16T00:48:09.585Z,80.32
2023-05-16T00:50:38.748Z,80.81
2023-05-16T00:53:06.645Z,80.28
2023-05-16T00:55:34.458Z,80.79
2023-05-16T00:58:03.787Z,80.45
2023-05-16T01:00:31.575Z,80.63
2023-05-16T01:02:59.495Z,80.99
2023-05-16T01:05:27.605Z,80.89
2023-05-16T01:07:55.613Z,80.70
2023-05-16T01:10:23.504Z,80.62
2023-05-16T01:12:58.085Z,80.73
2023-05-16T01:15:30.078Z,81.15
2023-05-16T01:18:02.553Z,80.85
2023-05-16T01:20:36.786Z,80.85
2023-05-16T01:23:19.570Z,80.74
2023-05-16T01:25:58.343Z,80.74
2023-05-16T01:28:28.632Z,80.91
2023-05-16T01:30:56.401Z,80.99
2023-05-16T01:33:24.196Z,81.20
2023-05-16T01:35:57.048Z,81.51
2023-05-16T01:38:27.628Z,81.71
2023-05-16T01:40:59.629Z,81.72
2023-05-16T01:43:32.375Z,82.27
2023-05-16T01:46:05.182Z,82.19
2023-05-16T01:48:37.441Z,81.76
2023-05-16T01:51:05.871Z,81.93
2023-05-16T01:53:38.757Z,81.94
2023-05-16T01:56:10.820Z,82.05
2023-05-16T01:58:40.913Z,82.05
2023-05-16T02:01:09.143Z,82.34
2023-05-16T02:03:37.022Z,82.16
2023-05-16T02:06:05.043Z,82.67
2023-05-16T02:08:32.888Z,82.71
2023-05-16T02:11:00.780Z,82.16
2023-05-16T02:13:28.528Z,83.01
2023-05-16T02:15:57.696Z,83.06
2023-05-16T02:18:26.067Z,82.94
2023-05-16T02:20:54.020Z,82.96
2023-05-16T02:23:21.775Z,82.72
2023-05-16T02:25:50.359Z,82.98
2023-05-16T02:28:18.084Z,82.77
2023-05-16T02:30:45.883Z,82.04
2023-05-16T02:33:15.001Z,82.33
2023-05-16T02:35:42.771Z,82.11
2023-05-16T02:38:10.553Z,82.39
2023-05-16T02:40:38.259Z,82.30
2023-05-16T02:43:06.036Z,82.15
2023-05-16T02:45:33.834Z,82.51
2023-05-16T02:48:01.637Z,82.05
2023-05-16T02:50:30.827Z,82.23
2023-05-16T02:52:59.834Z,82.79
2023-05-16T02:55:27.693Z,82.44
2023-05-16T02:57:55.550Z,82.98
2023-05-16T03:00:23.672Z,82.59
2023-05-16T03:02:51.432Z,82.71
2023-05-16T03:05:19.644Z,83.08
2023-05-16T03:07:48.724Z,82.70
2023-05-16T03:10:16.484Z,82.97
2023-05-16T03:12:44.225Z,82.58
2023-05-16T03:15:12.173Z,82.91
2023-05-16T03:17:39.946Z,82.73
2023-05-16T03:20:09.565Z,83.29
2023-05-16T03:22:37.318Z,83.01
2023-05-16T03:25:07.959Z,83.64
2023-05-16T03:27:36.307Z,82.99
2023-05-16T03:30:04.066Z,83.27
2023-05-16T03:32:31.867Z,82.96
2023-05-16T03:34:59.703Z,83.51
2023-05-16T03:37:27.540Z,83.33
2023-05-16T03:39:55.308Z,83.57
2023-05-16T03:42:24.480Z,83.59
2023-05-16T03:44:52.271Z,83.52
2023-05-16T03:47:20.047Z,83.09
2023-05-16T03:49:47.813Z,83.30
2023-05-16T03:52:15.582Z,83.61
2023-05-16T03:54:43.359Z,83.42
2023-05-16T03:57:11.106Z,83.90
2023-05-16T03:59:40.253Z,84.04
2023-05-16T04:02:09.141Z,83.90
2023-05-16T04:04:36.959Z,83.30
2023-05-16T04:07:04.976Z,83.32
2023-05-16T04:09:32.824Z,82.97
2023-05-16T04:12:02.001Z,82.84
2023-05-16T04:14:29.869Z,82.92
2023-05-16T04:16:59.014Z,82.72
2023-05-16T04:19:26.866Z,82.47
2023-05-16T04:21:54.606Z,82.77
2023-05-16T04:24:26.371Z,82.23
2023-05-16T04:26:54.189Z,82.23
2023-05-16T04:29:22.401Z,82.26
2023-05-16T04:31:50.325Z,81.68
2023-05-16T04:34:19.649Z,81.35
2023-05-16T04:36:47.402Z,81.36
2023-05-16T04:39:15.162Z,81.26
2023-05-16T04:41:42.931Z,81.54
2023-05-16T04:44:11.220Z,80.70
2023-05-16T04:46:39.345Z,80.68
2023-05-16T04:49:07.533Z,80.89
2023-05-16T04:51:36.756Z,80.67
2023-05-16T04:54:04.526Z,80.38
2023-05-16T04:56:32.292Z,80.40
2023-05-16T04:59:00.052Z,80.33
2023-05-16T05:01:27.924Z,79.72
2023-05-16T05:03:55.678Z,79.89
2023-05-16T05:06:23.504Z,80.27
2023-05-16T05:08:52.581Z,80.23
2023-05-16T05:11:21.108Z,80.27
2023-05-16T05:13:50.263Z,80.62
2023-05-16T05:16:19.761Z,80.68
2023-05-16T05:18:47.673Z,80.49
2023-05-16T05:21:15.666Z,80.42
2023-05-16T05:23:43.451Z,80.47
2023-05-16T05:26:12.676Z,80.87
2023-05-16T05:28:42.179Z,80.71
2023-05-16T05:31:13.404Z,80.75
2023-05-16T05:33:42.353Z,81.10
2023-05-16T05:36:10.838Z,81.15
2023-05-16T05:38:38.590Z,80.92
2023-05-16T05:41:06.787Z,80.92
2023-05-16T05:43:35.883Z,80.99
2023-05-16T05:46:03.700Z,80.93
2023-05-16T05:48:32.519Z,81.48
2023-05-16T05:51:00.560Z,80.97
2023-05-16T05:53:28.392Z,81.13
2023-05-16T05:55:56.166Z,80.65
2023-05-16T05:58:23.947Z,80.97
2023-05-16T06:00:53.062Z,80.33
2023-05-16T06:03:21.320Z,80.53
2023-05-16T06:05:49.215Z,79.74
2023-05-16T06:08:17.260Z,79.68
2023-05-16T06:10:45.097Z,80.02
2023-05-16T06:13:12.836Z,79.27
2023-05-16T06:15:40.634Z,78.99
2023-05-16T06:18:09.868Z,79.52
2023-05-16T06:20:37.687Z,78.76
2023-05-16T06:23:05.436Z,78.73
2023-05-16T06:25:33.339Z,78.81
2023-05-16T06:28:01.087Z,79.38
2023-05-16T06:30:28.899Z,78.87
2023-05-16T06:32:56.783Z,79.19
2023-05-16T06:35:26.449Z,79.11
2023-05-16T06:37:54.426Z,79.40
2023-05-16T06:40:22.187Z,79.49
2023-05-16T06:42:49.983Z,79.30
2023-05-16T06:45:17.865Z,79.15
2023-05-16T06:47:45.680Z,79.37
2023-05-16T06:50:13.913Z,79.51
2023-05-16T06:52:43.170Z,79.08
2023-05-16T06:55:11.563Z,79.20
2023-05-16T06:57:39.432Z,79.20
2023-05-16T07:00:09.417Z,78.64
2023-05-16T07:02:37.367Z,78.65
2023-05-16T07:05:05.704Z,79.40
2023-05-16T07:07:33.614Z,78.52
2023-05-16T07:10:02.988Z,78.48
2023-05-16T07:12:31.364Z,78.45
2023-05-16T07:14:59.693Z,78.43
2023-05-16T07:17:27.782Z,78.92
2023-05-16T07:19:55.557Z,78.54
2023-05-16T07:22:23.426Z,79.20
2023-05-16T07:24:53.272Z,78.97
2023-05-16T07:27:23.704Z,78.96
2023-05-16T07:29:51.569Z,78.91
2023-05-16T07:32:19.456Z,79.32
2023-05-16T07:34:47.267Z,79.08
2023-05-16T07:37:16.213Z,79.86
2023-05-16T07:39:44.019Z,79.52
2023-05-16T07:42:11.940Z,80.09
2023-05-16T07:44:41.116Z,79.50
2023-05-16T07:47:08.939Z,80.06
2023-05-16T07:49:36.761Z,79.50
2023-05-16T07:52:04.831Z,79.79
2023-05-16T07:54:33.520Z,80.19
2023-05-16T07:57:01.403Z,80.19
2023-05-16T07:59:29.491Z,80.23
2023-05-16T08:01:59.025Z,80.04
2023-05-16T08:04:26.857Z,79.70
2023-05-16T08:06:54.637Z,80.15
2023-05-16T08:09:22.584Z,80.04
2023-05-16T08:11:50.402Z,79.98
2023-05-16T08:14:18.854Z,80.49
2023-05-16T08:16:46.708Z,80.06
2023-05-16T08:19:15.962Z,79.47
2023-05-16T08:21:43.815Z,79.11
2023-05-16T08:24:12.232Z,78.67
2023-05-16T08:26:40.219Z,78.43
2023-05-16T08:29:08.178Z,77.58
2023-05-16T08:31:36.104Z,77.22
2023-05-16T08:34:06.474Z,76.56
2023-05-16T08:36:36.310Z,76.11
2023-05-16T08:39:04.777Z,74.94
2023-05-16T08:41:32.735Z,74.17
2023-05-16T08:44:00.658Z,74.26
2023-05-16T08:46:30.260Z,73.30
2023-05-16T08:49:00.423Z,73.72
2023-05-16T08:51:30.179Z,72.96
2023-05-16T08:54:02.263Z,72.64
2023-05-16T08:56:30.272Z,71.56
2023-05-16T08:58:58.651Z,70.52
2023-05-16T09:01:26.624Z,71.06
2023-05-16T09:03:54.588Z,70.11
2023-05-16T09:06:22.473Z,69.09
2023-05-16T09:08:50.711Z,69.78
2023-05-16T09:11:20.090Z,70.20
2023-05-16T09:13:48.178Z,69.86
2023-05-16T09:16:17.432Z,68.12
2023-05-16T09:18:47.091Z,67.21
2023-05-16T09:21:15.866Z,67.53
2023-05-16T09:23:44.069Z,66.68
2023-05-16T09:26:12.238Z,66.39
2023-05-16T09:28:41.484Z,65.54
2023-05-16T09:31:22.369Z,65.09
2023-05-16T09:33:50.999Z,64.93
2023-05-16T09:36:18.897Z,64.81
2023-05-16T09:38:46.744Z,64.50
2023-05-16T09:41:14.808Z,63.90
2023-05-16T09:43:45.211Z,62.97
2023-05-16T09:46:16.689Z,61.92
2023-05-16T09:48:46.415Z,62.04
2023-05-16T09:51:14.985Z,61.57
2023-05-16T09:53:43.148Z,61.92
2023-05-16T09:56:12.717Z,61.36
2023-05-16T09:58:41.792Z,62.25
2023-05-16T10:01:11.958Z,61.91
2023-05-16T10:03:41.221Z,62.62
2023-05-16T10:06:09.517Z,62.68
2023-05-16T10:08:38.307Z,62.23
2023-05-16T10:11:07.185Z,62.48
2023-05-16T10:13:36.875Z,61.86
2023-05-16T10:16:08.822Z,61.76
2023-05-16T10:18:39.961Z,61.12
2023-05-16T10:21:11.198Z,61.11
2023-05-16T10:23:42.543Z,60.93
2023-05-16T10:26:10.895Z,61.39
2023-05-16T10:28:39.065Z,61.19
2023-05-16T10:31:07.258Z,61.00
2023-05-16T10:33:38.809Z,61.65
2023-05-16T10:36:07.281Z,61.44
2023-05-16T10:38:35.655Z,60.78
2023-05-16T10:41:03.702Z,59.80
2023-05-16T10:43:33.429Z,58.88
2023-05-16T10:46:04.827Z,58.00
2023-05-16T10:48:33.669Z,55.96
2023-05-16T10:51:04.173Z,56.21
2023-05-16T10:53:34.015Z,56.11
2023-05-16T10:56:12.227Z,56.12
2023-05-16T10:58:48.811Z,54.65
2023-05-16T11:01:24.517Z,54.24
2023-05-16T11:04:10.315Z,52.89
2023-05-16T11:06:53.454Z,52.92
2023-05-16T11:09:28.522Z,51.95
2023-05-16T11:11:58.652Z,52.04
2023-05-16T11:14:28.916Z,52.02
2023-05-16T11:17:02.258Z,50.38
2023-05-16T11:19:32.631Z,49.07
2023-05-16T11:22:24.250Z,48.11
2023-05-16T11:24:54.508Z,48.96
2023-05-16T11:27:24.478Z,46.73
2023-05-16T11:29:52.571Z,45.09
2023-05-16T11:32:22.852Z,44.17
2023-05-16T11:34:51.247Z,45.42
2023-05-16T11:37:21.776Z,43.31
2023-05-16T11:39:49.945Z,41.49
2023-05-16T11:42:18.978Z,41.32
2023-05-16T11:44:46.881Z,40.22
2023-05-16T11:47:14.723Z,39.52
2023-05-16T11:49:43.313Z,39.37
2023-05-16T11:52:11.410Z,39.06
2023-05-16T11:54:42.407Z,39.03
2023-05-16T11:57:10.459Z,38.54
2023-05-16T11:59:38.453Z,38.98
2023-05-16T12:02:07.048Z,37.99
2023-05-16T12:04:35.213Z,36.13
2023-05-16T12:07:03.987Z,37.91
2023-05-16T12:09:31.836Z,37.52
2023-05-16T12:12:01.091Z,36.56
2023-05-16T12:14:28.978Z,37.91
2023-05-16T12:16:57.032Z,35.82
2023-05-16T12:19:25.348Z,36.41
2023-05-16T12:21:56.131Z,37.72
2023-05-16T12:24:30.966Z,38.07
2023-05-16T12:27:00.133Z,37.95
2023-05-16T12:29:27.961Z,35.29
2023-05-16T12:31:55.995Z,35.13
2023-05-16T12:34:24.365Z,33.76
2023-05-16T12:36:53.529Z,33.21
2023-05-16T12:39:21.616Z,34.20
2023-05-16T12:41:49.462Z,33.90
2023-05-16T12:44:19.885Z,33.86
2023-05-16T12:46:49.767Z,34.31
2023-05-16T12:49:21.038Z,34.24
2023-05-16T12:51:52.658Z,34.54
2023-05-16T12:54:22.867Z,33.40
2023-05-16T12:56:52.115Z,33.61
2023-05-16T12:59:21.338Z,33.29
2023-05-16T13:01:49.218Z,33.26
2023-05-16T13:04:20.215Z,30.78
2023-05-16T13:06:58.588Z,33.06
2023-05-16T13:09:32.112Z,32.86
2023-05-16T13:12:01.026Z,32.90
2023-05-16T13:14:30.243Z,32.57
2023-05-16T13:16:58.053Z,32.52
2023-05-16T13:19:26.260Z,33.47
2023-05-16T13:21:54.244Z,33.42
2023-05-16T13:24:22.050Z,33.59
2023-05-16T13:26:49.844Z,32.37
2023-05-16T13:29:17.618Z,32.58
2023-05-16T13:31:46.929Z,32.38
2023-05-16T13:34:14.865Z,31.01
2023-05-16T13:36:53.687Z,31.92
2023-05-16T13:39:23.024Z,31.62
2023-05-16T13:41:51.571Z,30.88
2023-05-16T13:44:19.667Z,32.00
2023-05-16T13:46:48.928Z,30.34
2023-05-16T13:49:16.872Z,30.65
2023-05-16T13:51:44.614Z,30.91
2023-05-16T13:54:12.459Z,30.73
2023-05-16T13:56:40.462Z,31.89
2023-05-16T13:59:09.632Z,30.75
2023-05-16T14:01:38.672Z,31.38
2023-05-16T14:04:07.987Z,32.25
2023-05-16T14:06:35.867Z,30.85
2023-05-16T14:09:03.976Z,31.47
2023-05-16T14:11:31.796Z,32.36
2023-05-16T14:13:59.610Z,33.38
2023-05-16T14:16:27.696Z,32.75
2023-05-16T14:18:55.943Z,33.44
2023-05-16T14:21:25.153Z,32.57
2023-05-16T14:23:52.953Z,31.54
2023-05-16T14:26:24.673Z,32.32
2023-05-16T14:28:52.547Z,31.19
2023-05-16T14:31:20.641Z,32.28
2023-05-16T14:33:48.577Z,32.52
2023-05-16T14:36:16.333Z,32.45
2023-05-16T14:38:45.494Z,31.64
2023-05-16T14:41:13.218Z,30.46
2023-05-16T14:43:41.003Z,29.65
2023-05-16T14:46:08.850Z,31.85
2023-05-16T14:48:36.640Z,29.90
2023-05-16T14:51:04.889Z,29.78
2023-05-16T14:53:32.710Z,30.42
2023-05-16T14:56:02.869Z,30.23
2023-05-16T14:58:30.692Z,30.56
2023-05-16T15:00:58.638Z,29.89
2023-05-16T15:03:26.528Z,31.23
2023-05-16T15:05:54.768Z,29.38
2023-05-16T15:08:22.832Z,29.01
2023-05-16T15:10:50.598Z,30.42
2023-05-16T15:13:19.720Z,30.01
2023-05-16T15:15:47.527Z,29.36
2023-05-16T15:18:15.343Z,30.17
2023-05-16T15:20:43.104Z,28.48
2023-05-16T15:23:12.026Z,29.69
2023-05-16T15:25:39.802Z,29.54
2023-05-16T15:28:07.618Z,28.61
2023-05-16T15:30:36.840Z,30.10
2023-05-16T15:33:04.678Z,30.15
2023-05-16T15:35:32.592Z,31.58
2023-05-16T15:38:00.384Z,31.57
2023-05-16T15:40:28.192Z,32.27
2023-05-16T15:42:56.235Z,32.25
2023-05-16T15:45:24.045Z,32.93
2023-05-16T15:47:53.211Z,32.45
2023-05-16T15:50:20.990Z,33.33
2023-05-16T15:52:49.077Z,32.79
2023-05-16T15:55:16.919Z,33.24
2023-05-16T15:57:44.800Z,33.87
2023-05-16T16:00:13.661Z,33.61
2023-05-16T16:02:43.502Z,34.35
2023-05-16T16:05:12.904Z,34.48
2023-05-16T16:07:40.675Z,34.39
2023-05-16T16:10:09.797Z,35.37
2023-05-16T16:12:37.588Z,35.84
2023-05-16T16:15:06.610Z,35.81
2023-05-16T16:17:34.484Z,35.94
2023-05-16T16:20:02.290Z,35.58
2023-05-16T16:22:31.491Z,36.40
2023-05-16T16:25:00.568Z,35.19
2023-05-16T16:27:28.399Z,35.03
2023-05-16T16:29:56.350Z,35.25
2023-05-16T16:32:24.200Z,35.19
2023-05-16T16:34:52.021Z,35.52
2023-05-16T16:37:20.741Z,34.79
2023-05-16T16:39:49.879Z,35.36
2023-05-16T16:42:17.642Z,35.28
2023-05-16T16:44:45.531Z,35.17
2023-05-16T16:47:13.354Z,34.83
2023-05-16T16:49:41.700Z,35.35
2023-05-16T16:52:09.626Z,35.39
2023-05-16T16:54:37.395Z,35.31
2023-05-16T16:57:07.015Z,34.66
2023-05-16T16:59:35.968Z,34.96
2023-05-16T17:02:03.777Z,35.63
2023-05-16T17:04:31.775Z,35.80
2023-05-16T17:06:59.526Z,36.41
2023-05-16T17:09:27.285Z,36.30
2023-05-16T17:11:55.021Z,36.38
2023-05-16T17:14:24.244Z,36.39
2023-05-16T17:16:52.068Z,36.85
2023-05-16T17:19:19.910Z,37.35
2023-05-16T17:21:47.788Z,37.43
2023-05-16T17:24:15.552Z,38.09
2023-05-16T17:26:43.429Z,38.36
2023-05-16T17:29:11.759Z,37.90
2023-05-16T17:31:41.032Z,38.60
2023-05-16T17:34:08.822Z,38.16
2023-05-16T17:36:38.042Z,39.08
2023-05-16T17:39:08.392Z,40.16
2023-05-16T17:41:36.302Z,40.56
2023-05-16T17:44:06.693Z,40.33
2023-05-16T17:46:34.605Z,40.33
2023-05-16T17:49:04.409Z,40.75
2023-05-16T17:51:46.473Z,41.16
2023-05-16T17:54:14.280Z,40.63
2023-05-16T17:56:42.796Z,40.82
2023-05-16T17:59:10.860Z,40.71
2023-05-16T18:01:39.695Z,40.86
2023-05-16T18:04:09.346Z,41.97
2023-05-16T18:06:38.677Z,42.23
2023-05-16T18:09:09.652Z,41.17
2023-05-16T18:11:38.570Z,42.75
2023-05-16T18:14:06.544Z,42.48
2023-05-16T18:16:34.288Z,42.25
2023-05-16T18:19:02.343Z,42.81
2023-05-16T18:21:31.560Z,42.44
2023-05-16T18:23:59.587Z,42.61
2023-05-16T18:26:28.902Z,43.13
2023-05-16T18:28:56.761Z,43.39
2023-05-16T18:31:24.575Z,43.67
2023-05-16T18:33:52.448Z,44.23
2023-05-16T18:36:20.218Z,44.50
2023-05-16T18:38:49.410Z,44.80
2023-05-16T18:41:17.182Z,44.67
2023-05-16T18:43:45.072Z,45.29
2023-05-16T18:46:12.842Z,45.89
2023-05-16T18:48:40.595Z,46.18
2023-05-16T18:51:08.455Z,46.64
2023-05-16T18:53:36.555Z,47.82
2023-05-16T18:56:05.910Z,47.50
2023-05-16T18:58:33.693Z,47.96
2023-05-16T19:01:01.770Z,48.02
2023-05-16T19:03:29.604Z,48.17
2023-05-16T19:05:57.691Z,47.84
2023-05-16T19:08:29.204Z,47.97
2023-05-16T19:11:01.803Z,48.28
2023-05-16T19:13:32.223Z,48.12
2023-05-16T19:16:00.088Z,48.28
2023-05-16T19:18:28.185Z,49.31
2023-05-16T19:20:56.098Z,48.75
2023-05-16T19:23:23.887Z,48.91
2023-05-16T19:25:51.732Z,49.06
2023-05-16T19:28:19.473Z,48.96
2023-05-16T19:30:48.634Z,49.10
2023-05-16T19:33:16.585Z,48.98
2023-05-16T19:35:44.344Z,49.46
2023-05-16T19:38:12.124Z,50.14
2023-05-16T19:40:39.968Z,50.67
2023-05-16T19:43:08.851Z,50.93
2023-05-16T19:45:37.284Z,51.15
2023-05-16T19:48:07.572Z,51.45
2023-05-16T19:50:35.457Z,51.31
2023-05-16T19:53:04.115Z,51.90
2023-05-16T19:55:32.203Z,53.26
2023-05-16T19:58:00.001Z,52.67
2023-05-16T20:00:27.803Z,53.45
2023-05-16T20:02:55.701Z,53.02
2023-05-16T20:05:25.231Z,53.10
2023-05-16T20:07:54.607Z,53.66
2023-05-16T20:10:23.002Z,53.77
2023-05-16T20:12:51.410Z,53.96
2023-05-16T20:15:19.187Z,54.12
2023-05-16T20:17:47.109Z,54.65
2023-05-16T20:20:14.855Z,55.39
2023-05-16T20:22:43.995Z,55.06
2023-05-16T20:25:12.084Z,55.28
2023-05-16T20:27:40.008Z,55.41
2023-05-16T20:30:08.857Z,56.03
2023-05-16T20:32:36.699Z,55.91
2023-05-16T20:35:09.011Z,56.43
2023-05-16T20:37:36.860Z,56.15
2023-05-16T20:40:07.324Z,56.80
2023-05-16T20:42:35.146Z,56.64
2023-05-16T20:45:02.912Z,57.15
2023-05-16T20:47:30.804Z,57.21
2023-05-16T20:50:01.656Z,58.33
2023-05-16T20:52:29.419Z,59.03
2023-05-16T20:54:58.139Z,58.87
2023-05-16T20:57:30.372Z,57.93
2023-05-16T20:59:58.097Z,59.45
2023-05-16T21:02:25.899Z,59.11
2023-05-16T21:04:53.749Z,59.18
2023-05-16T21:07:21.554Z,59.47
2023-05-16T21:09:49.392Z,59.37
2023-05-16T21:12:17.132Z,59.14
2023-05-16T21:14:46.715Z,59.17
2023-05-16T21:17:14.603Z,59.44
2023-05-16T21:19:42.463Z,59.78
2023-05-16T21:22:11.284Z,60.19
2023-05-16T21:24:39.042Z,60.25
2023-05-16T21:27:06.913Z,60.52
2023-05-16T21:29:34.654Z,60.40
2023-05-16T21:32:03.826Z,61.20
2023-05-16T21:34:31.564Z,60.96
2023-05-16T21:36:59.956Z,61.21
2023-05-16T21:39:27.749Z,61.71
2023-05-16T21:41:55.843Z,61.87
2023-05-16T21:44:23.647Z,62.20
2023-05-16T21:46:51.412Z,62.34
2023-05-16T21:49:20.725Z,62.33
2023-05-16T21:51:48.488Z,62.54
2023-05-16T21:54:16.265Z,62.32
2023-05-16T21:56:44.031Z,62.96
2023-05-16T21:59:11.778Z,62.80
2023-05-16T22:01:39.545Z,63.29
2023-05-16T22:04:07.447Z,62.98
2023-05-16T22:06:36.913Z,63.23
2023-05-16T22:09:05.011Z,63.59
2023-05-16T22:11:32.849Z,63.33
2023-05-16T22:14:00.635Z,63.46
2023-05-16T22:16:28.464Z,63.85
2023-05-16T22:18:56.391Z,64.05
2023-05-16T22:21:24.290Z,63.65
2023-05-16T22:23:53.453Z,63.83
2023-05-16T22:26:21.348Z,64.02
2023-05-16T22:28:49.145Z,64.52
2023-05-16T22:31:16.985Z,63.96
2023-05-16T22:33:44.917Z,64.48
2023-05-16T22:36:12.826Z,64.56
2023-05-16T22:38:40.590Z,64.50
2023-05-16T22:41:09.686Z,65.06
2023-05-16T22:43:37.482Z,65.23
2023-05-16T22:46:05.231Z,65.16
2023-05-16T22:48:33.015Z,65.73
2023-05-16T22:51:02.084Z,65.55
2023-05-16T22:53:29.961Z,65.47
2023-05-16T22:55:58.808Z,65.93
2023-05-16T22:58:27.934Z,65.85
2023-05-16T23:00:55.726Z,65.71
2023-05-16T23:03:23.601Z,65.78
2023-05-16T23:05:51.448Z,65.88
2023-05-16T23:08:19.213Z,65.90
2023-05-16T23:10:47.430Z,66.14
2023-05-16T23:13:15.342Z,66.33
2023-05-16T23:15:44.442Z,66.26
2023-05-16T23:18:12.584Z,66.52
2023-05-16T23:20:40.495Z,66.53
2023-05-16T23:23:08.383Z,66.48
2023-05-16T23:25:36.185Z,66.82
2023-05-16T23:28:04.080Z,67.18
2023-05-16T23:30:31.937Z,67.21
2023-05-16T23:33:01.174Z,67.46
2023-05-16T23:35:29.126Z,67.49
2023-05-16T23:37:57.018Z,67.36
2023-05-16T23:40:24.755Z,67.64
2023-05-16T23:42:52.515Z,67.59
2023-05-16T23:45:20.277Z,68.19
2023-05-16T23:47:48.145Z,68.48
2023-05-16T23:50:17.877Z,68.23
2023-05-16T23:52:45.680Z,68.62
2023-05-16T23:55:13.491Z,69.12
2023-05-16T23:57:41.385Z,69.24
